Time;durP1;ratioP1;P1;durP2;ratioP2;P2;SDS_P1;SDS_P2;PMS_P1;PMS_P2;Temp;Humidity;BMP_temperature;BMP_pressure;BME280_temperature;BME280_humidity;BME280_pressure;Samples;Min_cycle;Max_cycle;Signal;HPM_P1;HPM_P2
2022/10/27 00:02:07;;;;;;;;;;;;;;;12.93;63.85;96102.06;5112627;28;1673;-57
2022/10/27 00:04:53;;;;;;;;;;;;;;;12.95;64.10;96103.56;5112814;28;1694;-58
2022/10/27 00:07:38;;;;;;;;;;;;;;;13.12;63.72;96112.63;5113842;28;1693;-58
2022/10/27 00:10:24;;;;;;;;;;;;;;;13.33;63.20;96109.66;5113650;28;1524;-58
2022/10/27 00:13:10;;;;;;;;;;;;;;;13.18;63.62;96109.34;5112475;28;1995;-57
2022/10/27 00:15:57;;;;;;;;;;;;;;;13.34;63.38;96110.53;5113673;28;2709;-58
2022/10/27 00:18:43;;;;;;;;;;;;;;;13.37;63.47;96112.88;5113722;28;1693;-58
2022/10/27 00:21:28;;;;;;;;;;;;;;;13.24;63.79;96105.19;5113612;28;1681;-57
2022/10/27 00:24:14;;;;;;;;;;;;;;;13.08;64.19;96109.41;5113411;28;1689;-58
2022/10/27 00:26:59;;;;;;;;;;;;;;;12.91;64.86;96110.25;5112683;28;1492;-58
2022/10/27 00:29:44;;;;;;;;;;;;;;;12.84;64.84;96103.81;5113539;28;1568;-57
2022/10/27 00:32:30;;;;;;;;;;;;;;;13.00;64.40;96109.34;5115922;28;1912;-57
2022/10/27 00:35:15;;;;;;;;;;;;;;;13.02;64.24;96115.41;5116993;28;1559;-58
2022/10/27 00:38:01;;;;;;;;;;;;;;;13.02;64.14;96112.72;5117057;28;1725;-58
2022/10/27 00:40:46;;;;;;;;;;;;;;;13.03;64.01;96114.41;5116807;28;1806;-58
2022/10/27 00:43:36;;;;;;;;;;;;;;;13.05;63.65;96114.25;5117046;28;1703;-58
2022/10/27 00:46:25;;;;;;;;;;;;;;;12.91;63.92;96106.72;5115841;28;1706;-58
2022/10/27 00:49:16;;;;;;;;;;;;;;;12.86;64.05;96110.72;5117206;28;1654;-57
2022/10/27 00:52:04;;;;;;;;;;;;;;;12.81;64.29;96114.84;5115697;28;1913;-58
2022/10/27 00:54:50;;;;;;;;;;;;;;;12.61;64.58;96122.16;5116872;28;1586;-57
2022/10/27 00:57:36;;;;;;;;;;;;;;;12.61;64.22;96120.31;5117027;28;1535;-57
2022/10/27 01:00:22;;;;;;;;;;;;;;;12.54;64.68;96123.75;5116952;28;1539;-58
2022/10/27 01:03:09;;;;;;;;;;;;;;;12.65;64.13;96123.56;5116593;28;1346;-57
2022/10/27 01:05:56;;;;;;;;;;;;;;;12.58;64.14;96122.47;5116958;28;1580;-58
2022/10/27 01:08:42;;;;;;;;;;;;;;;12.33;63.74;96118.63;5116571;28;1694;-58
2022/10/27 01:11:27;;;;;;;;;;;;;;;12.14;64.71;96125.78;5115406;28;1717;-58
2022/10/27 01:14:13;;;;;;;;;;;;;;;12.28;64.11;96122.59;5116664;28;1705;-58
2022/10/27 01:17:13;;;;;;;;;;;;;;;12.12;64.49;96122.38;5116659;28;2754;-57
2022/10/27 01:20:18;;;;;;;;;;;;;;;11.91;65.08;96117.25;5116266;28;1588;-58
2022/10/27 01:23:15;;;;;;;;;;;;;;;11.76;65.71;96122.22;5116378;28;1661;-58
2022/10/27 01:26:01;;;;;;;;;;;;;;;11.99;65.05;96127.22;5116439;28;1595;-58
2022/10/27 01:28:49;;;;;;;;;;;;;;;11.98;65.09;96120.19;5116480;28;1665;-58
2022/10/27 01:31:55;;;;;;;;;;;;;;;11.91;65.51;96120.78;5116133;28;1543;-57
2022/10/27 01:34:40;;;;;;;;;;;;;;;11.80;65.96;96118.25;5085315;28;1510;-57
2022/10/27 01:37:37;;;;;;;;;;;;;;;11.94;65.86;96110.75;5116225;28;1698;-58
2022/10/27 01:40:31;;;;;;;;;;;;;;;11.79;65.95;96118.38;5116005;28;1670;-58
2022/10/27 01:43:18;;;;;;;;;;;;;;;11.84;65.66;96114.28;5115651;28;1563;-57
2022/10/27 01:46:05;;;;;;;;;;;;;;;11.80;66.11;96115.56;5115962;28;1508;-58
2022/10/27 01:48:51;;;;;;;;;;;;;;;11.96;65.20;96119.50;5116083;28;1667;-57
2022/10/27 01:51:36;;;;;;;;;;;;;;;11.98;65.55;96123.72;5116079;28;1615;-58
2022/10/27 01:54:22;;;;;;;;;;;;;;;11.95;65.87;96123.16;5115843;27;1555;-57
2022/10/27 01:57:07;;;;;;;;;;;;;;;11.99;65.75;96125.41;5115549;27;1567;-58
2022/10/27 02:00:03;;;;;;;;;;;;;;;12.02;65.66;96119.75;5115856;27;1512;-58
2022/10/27 02:02:54;;;;;;;;;;;;;;;12.25;64.88;96132.78;5114805;28;1683;-57
2022/10/27 02:05:45;;;;;;;;;;;;;;;12.39;64.85;96126.94;5115355;28;1559;-58
2022/10/27 02:08:34;;;;;;;;;;;;;;;12.19;65.22;96133.38;5114280;28;2390;-58
2022/10/27 02:11:19;;;;;;;;;;;;;;;12.15;65.49;96138.19;5115199;28;1552;-57
2022/10/27 02:14:05;;;;;;;;;;;;;;;12.08;65.93;96145.13;5115161;28;1619;-58
2022/10/27 02:16:52;;;;;;;;;;;;;;;12.02;66.06;96143.03;5114459;28;2813;-58
2022/10/27 02:19:39;;;;;;;;;;;;;;;12.10;66.01;96144.00;5115488;28;1670;-58
2022/10/27 02:22:27;;;;;;;;;;;;;;;12.09;65.99;96136.94;5114897;28;1618;-58
2022/10/27 02:25:12;;;;;;;;;;;;;;;11.95;66.06;96144.59;5094899;28;2057;-58
2022/10/27 02:28:00;;;;;;;;;;;;;;;11.93;66.65;96152.78;5093642;28;1725;-58
2022/10/27 02:30:46;;;;;;;;;;;;;;;11.81;66.93;96162.78;5107204;28;1658;-58
2022/10/27 02:33:32;;;;;;;;;;;;;;;11.73;67.34;96160.84;5114756;28;1914;-58
2022/10/27 02:36:17;;;;;;;;;;;;;;;11.99;66.46;96154.91;5114720;28;1571;-58
2022/10/27 02:39:03;;;;;;;;;;;;;;;12.08;65.93;96153.16;5114935;28;1666;-58
2022/10/27 02:41:48;;;;;;;;;;;;;;;12.06;65.86;96157.81;5114503;28;1685;-58
2022/10/27 02:44:33;;;;;;;;;;;;;;;12.10;65.60;96157.41;5113735;28;1575;-58
2022/10/27 02:47:19;;;;;;;;;;;;;;;12.15;65.53;96159.63;5114793;28;1655;-58
2022/10/27 02:50:05;;;;;;;;;;;;;;;11.94;66.16;96165.19;5114860;28;1500;-57
2022/10/27 02:52:50;;;;;;;;;;;;;;;11.87;65.78;96162.19;5113238;28;1986;-58
2022/10/27 02:55:35;;;;;;;;;;;;;;;11.95;65.44;96152.63;5113728;28;1563;-57
2022/10/27 02:58:21;;;;;;;;;;;;;;;11.97;65.30;96164.06;5113236;28;1567;-58
2022/10/27 03:01:06;;;;;;;;;;;;;;;11.74;66.09;96169.72;5114399;28;1563;-57
2022/10/27 03:03:52;;;;;;;;;;;;;;;11.66;66.38;96172.25;5114285;28;1671;-58
2022/10/27 03:06:37;;;;;;;;;;;;;;;11.52;66.90;96169.03;5113948;28;1576;-57
2022/10/27 03:09:23;;;;;;;;;;;;;;;11.57;66.63;96176.63;5113440;28;1476;-57
2022/10/27 03:12:08;;;;;;;;;;;;;;;11.60;66.83;96184.41;5114322;28;1909;-58
2022/10/27 03:14:54;;;;;;;;;;;;;;;11.55;66.97;96180.44;5114455;27;1682;-58
2022/10/27 03:17:43;;;;;;;;;;;;;;;11.67;66.50;96179.34;5114016;28;2808;-58
2022/10/27 03:20:29;;;;;;;;;;;;;;;11.80;65.98;96169.16;5113960;28;1588;-58
2022/10/27 03:23:14;;;;;;;;;;;;;;;11.86;65.58;96176.63;5114000;28;1584;-58
2022/10/27 03:26:00;;;;;;;;;;;;;;;11.96;65.60;96176.63;5113298;28;1528;-58
2022/10/27 03:28:45;;;;;;;;;;;;;;;11.90;66.08;96175.34;5113923;28;1698;-58
2022/10/27 03:31:31;;;;;;;;;;;;;;;11.78;66.84;96184.53;5114063;28;1511;-58
2022/10/27 03:34:16;;;;;;;;;;;;;;;11.77;66.96;96174.78;5113968;28;1535;-58
2022/10/27 03:37:02;;;;;;;;;;;;;;;11.71;67.05;96181.56;5112843;28;1682;-58
2022/10/27 03:39:47;;;;;;;;;;;;;;;11.79;66.85;96186.22;5114088;28;1580;-57
2022/10/27 03:42:33;;;;;;;;;;;;;;;11.71;67.19;96189.59;5112631;28;1524;-57
2022/10/27 03:45:18;;;;;;;;;;;;;;;11.67;67.45;96187.38;5113658;28;1722;-57
2022/10/27 03:48:09;;;;;;;;;;;;;;;11.57;67.73;96181.16;5113709;28;1733;-58
2022/10/27 03:50:54;;;;;;;;;;;;;;;11.61;67.50;96187.91;5112998;28;1524;-57
2022/10/27 03:53:40;;;;;;;;;;;;;;;11.55;67.31;96186.66;5113591;28;1917;-58
2022/10/27 03:56:25;;;;;;;;;;;;;;;11.39;67.91;96184.53;5113608;28;1622;-57
2022/10/27 03:59:11;;;;;;;;;;;;;;;11.49;67.38;96189.91;5113407;28;1568;-57
2022/10/27 04:01:56;;;;;;;;;;;;;;;11.49;67.20;96198.75;5113898;28;1662;-58
2022/10/27 04:04:42;;;;;;;;;;;;;;;11.50;67.48;96195.13;5114580;28;1670;-58
2022/10/27 04:07:27;;;;;;;;;;;;;;;11.62;67.46;96189.63;5117967;28;1559;-57
2022/10/27 04:10:13;;;;;;;;;;;;;;;11.73;66.95;96187.63;5117842;28;1524;-58
2022/10/27 04:12:58;;;;;;;;;;;;;;;11.76;67.07;96196.34;5117495;28;2000;-57
2022/10/27 04:15:43;;;;;;;;;;;;;;;11.71;67.13;96191.44;5117816;28;2585;-58
2022/10/27 04:18:29;;;;;;;;;;;;;;;11.66;67.40;96191.84;5117780;28;1702;-57
2022/10/27 04:21:15;;;;;;;;;;;;;;;11.73;66.72;96187.63;5117303;28;1520;-56
2022/10/27 04:24:01;;;;;;;;;;;;;;;11.78;66.54;96194.38;5116976;28;1804;-56
2022/10/27 04:26:46;;;;;;;;;;;;;;;11.84;66.58;96189.31;5117377;28;1710;-56
2022/10/27 04:29:32;;;;;;;;;;;;;;;11.84;66.67;96183.94;5117149;28;1563;-57
2022/10/27 04:32:17;;;;;;;;;;;;;;;11.73;66.90;96194.81;5117389;28;2001;-57
2022/10/27 04:35:03;;;;;;;;;;;;;;;11.42;67.52;96192.31;5117463;28;1504;-56
2022/10/27 04:37:49;;;;;;;;;;;;;;;11.21;68.21;96186.22;5117420;28;1669;-56
2022/10/27 04:40:34;;;;;;;;;;;;;;;11.42;67.34;96191.44;5117347;28;1690;-57
2022/10/27 04:43:20;;;;;;;;;;;;;;;11.57;66.65;96197.22;5117291;28;1713;-57
2022/10/27 04:46:05;;;;;;;;;;;;;;;11.30;67.98;96196.94;5117187;28;1507;-57
2022/10/27 04:48:51;;;;;;;;;;;;;;;11.44;68.02;96192.16;5117314;28;1605;-57
2022/10/27 04:51:36;;;;;;;;;;;;;;;11.52;67.52;96190.47;5116827;28;1714;-57
2022/10/27 04:54:21;;;;;;;;;;;;;;;11.57;66.66;96195.38;5116152;28;1705;-57
2022/10/27 04:57:07;;;;;;;;;;;;;;;11.45;66.97;96197.38;5115989;28;1741;-57
2022/10/27 04:59:52;;;;;;;;;;;;;;;11.45;67.45;96205.41;5116910;28;1760;-57
2022/10/27 05:02:38;;;;;;;;;;;;;;;11.37;67.77;96212.47;5117029;28;1520;-57
2022/10/27 05:05:25;;;;;;;;;;;;;;;11.28;68.44;96214.97;5115108;28;1520;-57
2022/10/27 05:08:11;;;;;;;;;;;;;;;11.33;67.54;96227.97;5116735;28;1519;-57
2022/10/27 05:10:56;;;;;;;;;;;;;;;11.42;67.03;96232.47;5116801;28;1658;-57
2022/10/27 05:13:41;;;;;;;;;;;;;;;11.44;67.12;96238.53;5116408;28;1902;-57
2022/10/27 05:16:27;;;;;;;;;;;;;;;11.49;66.99;96233.59;5115399;28;2704;-57
2022/10/27 05:19:12;;;;;;;;;;;;;;;11.33;67.30;96239.50;5116183;28;2363;-57
2022/10/27 05:21:58;;;;;;;;;;;;;;;11.09;68.29;96247.91;5129467;27;1718;-57
2022/10/27 05:24:43;;;;;;;;;;;;;;;11.19;68.07;96244.41;5116385;28;1730;-57
2022/10/27 05:27:30;;;;;;;;;;;;;;;11.23;68.42;96244.00;5115156;28;1539;-57
2022/10/27 05:30:15;;;;;;;;;;;;;;;11.18;68.68;96245.41;5116264;28;1507;-57
2022/10/27 05:33:01;;;;;;;;;;;;;;;11.23;68.37;96253.84;5116151;28;2021;-57
2022/10/27 05:35:46;;;;;;;;;;;;;;;11.32;68.45;96253.91;5115314;28;1524;-57
2022/10/27 05:38:32;;;;;;;;;;;;;;;11.67;67.14;96254.34;5115311;28;1476;-58
2022/10/27 05:41:17;;;;;;;;;;;;;;;11.86;66.91;96259.69;5114769;28;1520;-58
2022/10/27 05:44:03;;;;;;;;;;;;;;;12.19;66.63;96270.13;5115173;28;1682;-57
2022/10/27 05:46:48;;;;;;;;;;;;;;;12.44;65.90;96265.97;5116185;28;1487;-57
2022/10/27 05:49:34;;;;;;;;;;;;;;;12.65;65.25;96261.25;5111097;28;2782;-58
2022/10/27 05:52:19;;;;;;;;;;;;;;;13.00;65.45;96261.53;5095019;28;1997;-58
2022/10/27 05:55:05;;;;;;;;;;;;;;;13.25;63.98;96262.66;5093607;28;1694;-58
2022/10/27 05:57:58;;;;;;;;;;;;;;;13.66;63.86;96268.50;5094968;28;1717;-57
2022/10/27 06:00:43;;;;;;;;;;;;;;;13.99;62.67;96277.69;5095324;28;1544;-58
2022/10/27 06:03:29;;;;;;;;;;;;;;;14.28;62.42;96281.97;5095263;28;1532;-58
2022/10/27 06:06:16;;;;;;;;;;;;;;;14.74;61.10;96288.06;5094887;28;1555;-58
2022/10/27 06:09:01;;;;;;;;;;;;;;;15.35;59.19;96291.53;5094944;28;1709;-58
2022/10/27 06:11:47;;;;;;;;;;;;;;;15.74;58.00;96293.69;5094851;28;1678;-58
2022/10/27 06:14:32;;;;;;;;;;;;;;;15.95;57.06;96301.31;5094644;28;1563;-58
2022/10/27 06:17:18;;;;;;;;;;;;;;;16.25;56.80;96300.84;5095028;28;1538;-58
2022/10/27 06:20:03;;;;;;;;;;;;;;;16.27;56.20;96309.59;5095014;28;1559;-58
2022/10/27 06:22:49;;;;;;;;;;;;;;;15.59;57.72;96306.09;5101731;28;1526;-58
2022/10/27 06:25:34;;;;;;;;;;;;;;;15.19;58.87;96315.69;5115278;28;1520;-58
2022/10/27 06:28:21;;;;;;;;;;;;;;;14.81;59.98;96310.63;5115268;28;1681;-58
2022/10/27 06:31:06;;;;;;;;;;;;;;;14.42;61.58;96318.25;5115103;28;1651;-58
2022/10/27 06:33:52;;;;;;;;;;;;;;;14.24;62.58;96319.09;5113812;28;1913;-58
2022/10/27 06:36:37;;;;;;;;;;;;;;;14.13;63.05;96324.72;5115224;28;1721;-58
2022/10/27 06:39:22;;;;;;;;;;;;;;;14.06;63.09;96327.19;5114619;28;1547;-58
2022/10/27 06:42:08;;;;;;;;;;;;;;;14.01;63.68;96323.25;5114608;28;1574;-58
2022/10/27 06:44:53;;;;;;;;;;;;;;;13.92;63.85;96325.03;5115000;28;1726;-58
2022/10/27 06:47:39;;;;;;;;;;;;;;;13.95;64.29;96332.78;5114891;28;1540;-58
2022/10/27 06:50:25;;;;;;;;;;;;;;;13.90;64.44;96331.56;5114471;28;1911;-57
2022/10/27 06:53:10;;;;;;;;;;;;;;;14.01;64.27;96334.03;5114598;28;1987;-58
2022/10/27 06:55:57;;;;;;;;;;;;;;;14.04;63.83;96331.03;5114772;28;1531;-57
2022/10/27 06:58:42;;;;;;;;;;;;;;;14.16;64.07;96339.72;5114441;28;1567;-58
2022/10/27 07:01:30;;;;;;;;;;;;;;;14.32;63.22;96345.22;5114646;28;1670;-58
2022/10/27 07:04:16;;;;;;;;;;;;;;;14.54;62.46;96345.75;5114546;28;1678;-58
2022/10/27 07:07:01;;;;;;;;;;;;;;;15.00;61.53;96347.25;5114587;28;1504;-58
2022/10/27 07:09:47;;;;;;;;;;;;;;;15.35;60.35;96340.03;5114579;28;1635;-58
2022/10/27 07:12:32;;;;;;;;;;;;;;;15.92;59.03;96342.09;5127575;27;1989;-58
2022/10/27 07:15:18;;;;;;;;;;;;;;;16.58;56.52;96334.06;5114061;28;1567;-58
2022/10/27 07:18:05;;;;;;;;;;;;;;;17.11;56.18;96334.50;5114165;28;1516;-58
2022/10/27 07:20:52;;;;;;;;;;;;;;;17.23;56.11;96335.00;5114099;28;1705;-58
2022/10/27 07:23:38;;;;;;;;;;;;;;;17.83;54.46;96334.41;5114277;28;1579;-58
2022/10/27 07:26:23;;;;;;;;;;;;;;;22.26;44.60;96348.38;5113108;28;1556;-58
2022/10/27 07:29:09;;;;;;;;;;;;;;;23.77;40.65;96356.78;5114126;28;1649;-58
2022/10/27 07:31:54;;;;;;;;;;;;;;;23.23;40.97;96355.19;5106876;28;2003;-58
2022/10/27 07:34:40;;;;;;;;;;;;;;;22.09;43.31;96347.88;5093727;28;1512;-58
2022/10/27 07:37:25;;;;;;;;;;;;;;;22.90;41.42;96357.91;5093409;28;1697;-58
2022/10/27 07:40:11;;;;;;;;;;;;;;;25.80;36.56;96375.19;5101740;28;1560;-58
2022/10/27 07:42:58;;;;;;;;;;;;;;;25.93;35.75;96369.59;5113658;28;1690;-58
2022/10/27 07:45:44;;;;;;;;;;;;;;;24.05;38.79;96361.09;5113754;28;1556;-58
2022/10/27 07:48:30;;;;;;;;;;;;;;;26.02;35.32;96378.38;5113971;28;1666;-59
2022/10/27 07:51:15;;;;;;;;;;;;;;;25.36;36.26;96369.75;5112827;28;1504;-58
2022/10/27 07:54:00;;;;;;;;;;;;;;;23.69;38.52;96354.25;5113659;28;2000;-58
2022/10/27 07:56:49;;;;;;;;;;;;;;;23.42;38.94;96358.13;5112935;28;1659;-58
2022/10/27 07:59:35;;;;;;;;;;;;;;;24.42;37.81;96364.06;5113890;28;1716;-58
2022/10/27 08:02:20;;;;;;;;;;;;;;;27.68;31.76;96396.22;5112816;28;1627;-58
2022/10/27 08:05:06;;;;;;;;;;;;;;;25.76;34.74;96380.28;5113522;28;1551;-58
2022/10/27 08:07:55;;;;;;;;;;;;;;;23.75;37.24;96368.94;5113860;28;1516;-59
2022/10/27 08:10:41;;;;;;;;;;;;;;;24.67;35.97;96372.38;5113867;28;1519;-59
2022/10/27 08:13:27;;;;;;;;;;;;;;;27.32;31.81;96382.47;5113794;28;1902;-58
2022/10/27 08:16:12;;;;;;;;;;;;;;;26.60;31.68;96377.03;5112401;28;1877;-58
2022/10/27 08:18:58;;;;;;;;;;;;;;;24.88;34.48;96362.97;5126774;28;1556;-58
2022/10/27 08:21:43;;;;;;;;;;;;;;;23.15;37.33;96358.16;5113402;28;1685;-58
2022/10/27 08:24:29;;;;;;;;;;;;;;;22.45;40.02;96344.03;5113337;28;1706;-58
2022/10/27 08:27:14;;;;;;;;;;;;;;;22.55;39.97;96339.81;5113343;28;1732;-58
2022/10/27 08:29:59;;;;;;;;;;;;;;;22.48;39.80;96332.69;5113262;28;1709;-58
2022/10/27 08:32:46;;;;;;;;;;;;;;;22.55;40.32;96342.56;5113481;28;1985;-58
2022/10/27 08:35:32;;;;;;;;;;;;;;;22.33;40.58;96336.44;5113521;28;1413;-58
2022/10/27 08:38:18;;;;;;;;;;;;;;;22.13;40.90;96324.63;5113521;28;1690;-58
2022/10/27 08:41:13;;;;;;;;;;;;;;;21.87;41.19;96336.25;5112990;28;1575;-59
2022/10/27 08:44:25;;;;;;;;;;;;;;;22.08;41.35;96333.38;5113265;28;1583;-58
2022/10/27 08:47:28;;;;;;;;;;;;;;;22.45;41.20;96333.13;5113150;28;1516;-58
2022/10/27 08:50:19;;;;;;;;;;;;;;;22.29;41.62;96327.00;5113354;28;1538;-58
2022/10/27 08:53:07;;;;;;;;;;;;;;;23.29;39.32;96337.13;5096179;28;1906;-58
2022/10/27 08:55:52;;;;;;;;;;;;;;;23.51;38.79;96335.00;5096535;28;1084;-58
2022/10/27 08:58:28;;;;;;;;;;;;;;;23.68;38.26;96329.91;5096570;28;1035;-58
2022/10/27 09:01:11;;;;;;;;;;;;;;;23.28;39.43;96328.13;5096334;28;1128;-59
2022/10/27 09:03:46;;;;;;;;;;;;;;;23.11;39.19;96330.44;5096351;28;1044;-58
2022/10/27 09:06:12;;;;;;;;;;;;;;;23.03;39.22;96325.22;5096405;28;1038;-58
2022/10/27 09:08:38;;;;;;;;;;;;;;;23.15;39.48;96330.88;5095261;28;1583;-58
2022/10/27 09:11:23;;;;;;;;;;;;;;;23.23;38.70;96329.81;5096200;28;1064;-58
2022/10/27 09:13:55;;;;;;;;;;;;;;;23.45;38.97;96323.06;5096183;28;1996;-58
2022/10/27 09:16:40;;;;;;;;;;;;;;;23.71;38.36;96318.53;5095954;28;1020;-58
2022/10/27 09:19:11;;;;;;;;;;;;;;;24.03;38.76;96316.75;5096291;28;1001;-59
2022/10/27 09:21:39;;;;;;;;;;;;;;;24.35;37.31;96319.53;5096174;28;956;-58
2022/10/27 09:24:11;;;;;;;;;;;;;;;24.88;37.46;96318.34;5095963;28;1036;-58
2022/10/27 09:26:38;;;;;;;;;;;;;;;25.07;37.09;96317.34;5095820;28;1059;-58
2022/10/27 09:29:15;;;;;;;;;;;;;;;25.19;35.37;96319.34;5094684;28;1049;-59
2022/10/27 09:31:47;;;;;;;;;;;;;;;25.44;35.48;96322.06;5115820;28;1435;-59
2022/10/27 09:34:13;;;;;;;;;;;;;;;25.73;35.72;96315.03;5115997;28;1886;-59
2022/10/27 09:36:39;;;;;;;;;;;;;;;26.14;35.29;96320.88;5116033;28;1124;-59
2022/10/27 09:39:05;;;;;;;;;;;;;;;26.86;33.22;96329.13;5114794;28;1318;-59
2022/10/27 09:41:31;;;;;;;;;;;;;;;27.77;31.76;96337.06;5115951;28;1329;-59
2022/10/27 09:43:59;;;;;;;;;;;;;;;30.07;29.86;96348.63;5114993;28;1037;-59
2022/10/27 09:46:27;;;;;;;;;;;;;;;32.12;26.38;96362.69;5115814;28;1096;-59
2022/10/27 09:49:12;;;;;;;;;;;;;;;33.09;25.96;96360.25;5114712;28;1020;-59
2022/10/27 09:51:47;;;;;;;;;;;;;;;33.46;25.07;96368.31;5114506;28;1197;-59
2022/10/27 09:54:33;;;;;;;;;;;;;;;33.33;24.86;96368.06;5115674;28;1906;-59
2022/10/27 09:57:18;;;;;;;;;;;;;;;33.11;25.36;96363.63;5114665;28;1023;-59
2022/10/27 10:00:10;;;;;;;;;;;;;;;32.81;24.84;96356.06;5115825;28;1026;-59
2022/10/27 10:02:38;;;;;;;;;;;;;;;32.29;25.51;96353.13;5081828;28;1564;-59
2022/10/27 10:05:16;;;;;;;;;;;;;;;31.73;26.85;96347.25;5115654;28;1045;-59
2022/10/27 10:07:44;;;;;;;;;;;;;;;30.92;26.70;96339.94;5115659;28;1045;-59
2022/10/27 10:10:14;;;;;;;;;;;;;;;29.73;28.38;96323.91;5115500;28;988;-59
2022/10/27 10:12:40;;;;;;;;;;;;;;;28.44;29.60;96325.56;5115257;27;1910;-59
2022/10/27 10:15:09;;;;;;;;;;;;;;;27.14;32.32;96309.25;5115707;28;1034;-59
2022/10/27 10:17:37;;;;;;;;;;;;;;;25.95;33.45;96295.41;5115595;28;992;-58
2022/10/27 10:20:04;;;;;;;;;;;;;;;25.06;34.73;96301.16;5115464;28;1042;-58
2022/10/27 10:22:32;;;;;;;;;;;;;;;24.51;34.19;96285.38;5115316;27;968;-58
2022/10/27 10:25:14;;;;;;;;;;;;;;;24.13;35.69;96272.56;5115289;27;965;-58
2022/10/27 10:27:43;;;;;;;;;;;;;;;23.84;36.19;96268.53;5115452;28;1123;-58
2022/10/27 10:30:17;;;;;;;;;;;;;;;23.69;36.67;96272.34;5114986;28;1462;-58
2022/10/27 10:32:47;;;;;;;;;;;;;;;23.59;36.36;96277.44;5115005;28;1914;-58
2022/10/27 10:35:33;;;;;;;;;;;;;;;23.42;37.02;96274.34;5114849;28;1037;-58
2022/10/27 10:37:59;;;;;;;;;;;;;;;23.28;37.22;96267.25;5104409;28;1535;-58
2022/10/27 10:40:27;;;;;;;;;;;;;;;23.13;37.12;96262.88;5113540;28;1251;-58
2022/10/27 10:43:00;;;;;;;;;;;;;;;23.17;37.29;96263.28;5114708;28;1222;-58
2022/10/27 10:45:26;;;;;;;;;;;;;;;23.12;37.07;96254.91;5114735;28;1064;-58
2022/10/27 10:47:58;;;;;;;;;;;;;;;23.15;37.81;96247.13;5114817;28;984;-58
2022/10/27 10:50:24;;;;;;;;;;;;;;;23.19;37.43;96253.00;5114497;28;1208;-58
2022/10/27 10:52:52;;;;;;;;;;;;;;;23.17;37.58;96247.75;5113593;28;1996;-58
2022/10/27 10:55:18;;;;;;;;;;;;;;;23.22;37.64;96246.25;5130542;27;960;-58
2022/10/27 10:57:44;;;;;;;;;;;;;;;23.24;37.57;96242.28;5113346;28;1045;-58
2022/10/27 11:00:15;;;;;;;;;;;;;;;23.15;36.95;96238.94;5130246;27;1107;-58
2022/10/27 11:02:41;;;;;;;;;;;;;;;23.10;37.38;96236.00;5114453;28;952;-58
2022/10/27 11:05:12;;;;;;;;;;;;;;;23.10;37.16;96243.38;5114320;28;1103;-58
2022/10/27 11:07:39;;;;;;;;;;;;;;;23.01;37.88;96229.06;5114782;28;1898;-58
2022/10/27 11:10:15;;;;;;;;;;;;;;;23.03;36.55;96237.94;5114580;28;1709;-58
2022/10/27 11:12:47;;;;;;;;;;;;;;;23.00;36.11;96241.06;5114355;28;1995;-58
2022/10/27 11:15:19;;;;;;;;;;;;;;;22.96;37.01;96229.72;5113542;28;1041;-58
2022/10/27 11:17:47;;;;;;;;;;;;;;;22.88;35.82;96231.81;5114191;27;1135;-58
2022/10/27 11:20:19;;;;;;;;;;;;;;;22.87;36.38;96224.72;5114388;28;1046;-58
2022/10/27 11:22:46;;;;;;;;;;;;;;;22.88;36.50;96227.22;5114145;28;1061;-58
2022/10/27 11:25:21;;;;;;;;;;;;;;;22.94;36.61;96231.81;5113964;28;1049;-58
2022/10/27 11:28:00;;;;;;;;;;;;;;;22.91;35.52;96228.69;5112797;28;1044;-58
2022/10/27 11:30:27;;;;;;;;;;;;;;;22.96;35.67;96224.28;5103156;28;1497;-58
2022/10/27 11:32:59;;;;;;;;;;;;;;;23.00;35.31;96220.06;5093708;28;1990;-58
2022/10/27 11:35:31;;;;;;;;;;;;;;;23.08;34.89;96220.91;5093622;28;1205;-58
2022/10/27 11:38:31;;;;;;;;;;;;;;;23.04;35.28;96214.22;5093613;28;985;-58
2022/10/27 11:40:57;;;;;;;;;;;;;;;22.89;34.63;96219.88;5109638;28;1252;-58
2022/10/27 11:43:33;;;;;;;;;;;;;;;22.83;34.99;96207.94;5114054;28;969;-58
2022/10/27 11:46:00;;;;;;;;;;;;;;;22.80;35.72;96208.34;5113978;28;1092;-58
2022/10/27 11:48:42;;;;;;;;;;;;;;;22.76;35.03;96199.75;5113779;28;985;-58
2022/10/27 11:51:14;;;;;;;;;;;;;;;22.79;35.90;96198.50;5113909;28;1212;-58
2022/10/27 11:53:40;;;;;;;;;;;;;;;22.83;35.86;96198.94;5113675;28;1921;-58
2022/10/27 11:56:28;;;;;;;;;;;;;;;22.79;34.38;96202.06;5112756;28;1059;-58
2022/10/27 11:59:14;;;;;;;;;;;;;;;22.72;34.74;96203.97;5112948;28;1494;-58
2022/10/27 12:01:40;;;;;;;;;;;;;;;22.74;34.92;96201.84;5113949;28;1165;-58
2022/10/27 12:04:19;;;;;;;;;;;;;;;22.79;34.33;96196.59;5114007;28;1034;-58
2022/10/27 12:06:54;;;;;;;;;;;;;;;22.74;34.55;96201.84;5113901;28;1039;-58
2022/10/27 12:09:21;;;;;;;;;;;;;;;22.78;33.75;96194.94;5113626;28;1052;-58
2022/10/27 12:11:50;;;;;;;;;;;;;;;22.73;33.24;96200.19;5113664;28;1048;-58
2022/10/27 12:14:26;;;;;;;;;;;;;;;22.70;33.52;96199.78;5113719;28;1898;-58
2022/10/27 12:17:04;;;;;;;;;;;;;;;22.63;33.29;96194.31;5112634;28;957;-58
2022/10/27 12:19:36;;;;;;;;;;;;;;;22.56;33.76;96198.97;5112358;28;1132;-58
2022/10/27 12:22:10;;;;;;;;;;;;;;;22.59;34.03;96201.25;5113644;28;989;-58
2022/10/27 12:24:46;;;;;;;;;;;;;;;22.58;32.83;96197.69;5113817;28;1051;-58
2022/10/27 12:27:15;;;;;;;;;;;;;;;22.55;33.54;96202.72;5115445;28;1636;-58
2022/10/27 12:29:50;;;;;;;;;;;;;;;22.48;33.57;96197.28;5117377;28;1457;-58
2022/10/27 12:32:19;;;;;;;;;;;;;;;22.39;33.06;96199.38;5116117;28;1976;-58
2022/10/27 12:34:52;;;;;;;;;;;;;;;22.37;32.86;96201.47;5116140;28;1001;-58
2022/10/27 12:37:30;;;;;;;;;;;;;;;22.44;33.36;96192.47;5117478;28;965;-58
2022/10/27 12:40:06;;;;;;;;;;;;;;;22.42;33.64;96198.97;5117388;28;1235;-58
2022/10/27 12:42:42;;;;;;;;;;;;;;;22.41;32.64;96204.63;5115905;28;1258;-58
2022/10/27 12:45:14;;;;;;;;;;;;;;;22.35;32.61;96195.41;5115990;28;944;-58
2022/10/27 12:47:40;;;;;;;;;;;;;;;22.29;32.69;96196.25;5115806;28;1608;-58
2022/10/27 12:50:16;;;;;;;;;;;;;;;22.29;32.15;96193.53;5117209;28;1537;-58
2022/10/27 12:52:52;;;;;;;;;;;;;;;22.40;32.31;96197.47;5117059;28;1910;-58
2022/10/27 12:55:24;;;;;;;;;;;;;;;22.42;32.70;96196.25;5117037;28;973;-58
2022/10/27 12:57:50;;;;;;;;;;;;;;;22.36;32.43;96193.50;5116850;28;1053;-58
2022/10/27 13:00:20;;;;;;;;;;;;;;;22.34;32.23;96191.00;5116766;28;1088;-58
2022/10/27 13:03:05;;;;;;;;;;;;;;;22.31;32.63;96191.44;5117021;28;1028;-58
2022/10/27 13:05:52;;;;;;;;;;;;;;;22.21;32.16;96199.13;5116811;28;1100;-58
2022/10/27 13:08:22;;;;;;;;;;;;;;;22.17;31.69;96193.25;5116565;28;1092;-58
2022/10/27 13:11:06;;;;;;;;;;;;;;;22.13;32.06;96191.16;5117214;28;953;-58
2022/10/27 13:13:47;;;;;;;;;;;;;;;22.13;32.63;96186.56;5116709;28;1977;-58
2022/10/27 13:16:32;;;;;;;;;;;;;;;22.11;32.15;96187.81;5115352;28;1003;-58
2022/10/27 13:19:01;;;;;;;;;;;;;;;22.04;32.73;96187.78;5116764;27;1023;-58
2022/10/27 13:21:36;;;;;;;;;;;;;;;22.02;32.14;96188.03;5116608;28;1679;-58
2022/10/27 13:24:14;;;;;;;;;;;;;;;21.99;32.42;96183.00;5116589;28;977;-58
2022/10/27 13:26:44;;;;;;;;;;;;;;;21.95;31.25;96189.91;5116505;28;1074;-58
2022/10/27 13:29:20;;;;;;;;;;;;;;;21.94;31.71;96188.22;5116296;28;1111;-58
2022/10/27 13:32:06;;;;;;;;;;;;;;;21.93;31.10;96183.81;5096171;28;988;-58
2022/10/27 13:34:32;;;;;;;;;;;;;;;21.90;31.18;96186.13;5094593;28;1229;-58
2022/10/27 13:37:17;;;;;;;;;;;;;;;21.91;30.92;96185.91;5095524;28;980;-58
2022/10/27 13:39:44;;;;;;;;;;;;;;;21.87;31.51;96181.06;5101575;28;1260;-58
2022/10/27 13:42:15;;;;;;;;;;;;;;;21.82;30.72;96187.16;5115784;28;1096;-58
2022/10/27 13:44:41;;;;;;;;;;;;;;;21.81;31.39;96182.75;5116545;28;1051;-58
2022/10/27 13:47:14;;;;;;;;;;;;;;;21.79;31.32;96182.94;5116013;28;997;-58
2022/10/27 13:49:40;;;;;;;;;;;;;;;21.78;31.42;96188.63;5115909;28;1088;-58
2022/10/27 13:52:15;;;;;;;;;;;;;;;21.73;31.64;96191.09;5115649;27;1914;-58
2022/10/27 13:54:47;;;;;;;;;;;;;;;21.70;31.16;96177.91;5114724;28;1048;-58
2022/10/27 13:57:28;;;;;;;;;;;;;;;21.67;30.87;96184.59;5115707;28;1049;-58
2022/10/27 13:59:58;;;;;;;;;;;;;;;21.64;30.75;96183.16;5114659;28;1051;-58
2022/10/27 14:02:32;;;;;;;;;;;;;;;21.62;30.90;96185.19;5115950;27;953;-58
2022/10/27 14:05:02;;;;;;;;;;;;;;;21.62;31.21;96187.09;5114543;28;1048;-58
2022/10/27 14:07:32;;;;;;;;;;;;;;;21.58;31.12;96191.28;5115726;28;937;-58
2022/10/27 14:09:58;;;;;;;;;;;;;;;21.56;31.10;96186.03;5115737;28;984;-58
2022/10/27 14:12:27;;;;;;;;;;;;;;;21.58;30.71;96183.94;5115344;28;1913;-58